Adona, Arkansas
Current Conditions -  °F | °C
As of 5:53 PM on Thursday 27 Nov 2014 (Local Time) from KRUE Reporting Station
Clear Clear  
Wind Chill:   Ceiling: Unl
Heat Index:   Visibility: 10mi
Dew Point: -1°   Wind: 0mph
Humidity: 76%   Direction: NA
Pressure: 30.44"   Gusts: NA
Location:  35.04°N, 92.9°W
Report Text: KRUE 272353Z AUTO 00000KT 10SM CLR 03/M01 A3044 RMK AO2 SLP308 T00281011 10100 20028 55005
Loading
Personal Weather Stations






























Interactive Weather Map New forecast layout! Learn more

10-Day Weather Forecast

Advertisements
Track Severe Weather on mobile